Terminal Aerodrome Forecast
Issued by NWS Missoula, MT

Home | Current Version | Previous Version | Text Only | Print | Product List | Glossary On
Versions: 1 2 3 4 5 6 7 8 9 10 11 12 13
000
FTUS45 KMSO 241128
TAFBTM
TAF
KBTM 241128Z 2412/2512 20008G15KT P6SM BKN090
     FM241400 28015G25KT P6SM SCT060
     FM241800 30030G40KT P6SM SKC
     FM250100 32020G30KT P6SM SCT060
     FM250400 32012KT P6SM VCSH BKN060=

USA.gov is the U.S. government's official web portal to all federal, state and local government web resources and services.